Time;durP1;ratioP1;P1;durP2;ratioP2;P2;SDS_P1;SDS_P2;PMS_P1;PMS_P2;Temp;Humidity;BMP_temperature;BMP_pressure;BME280_temperature;BME280_humidity;BME280_pressure;Samples;Min_cycle;Max_cycle;Signal;HPM_P1;HPM_P2
2023/06/11 00:01:53;;;;;;;1.70;1.60;;;;;;;14.01;100.00;90455.59;5072558;28;20028;-64
2023/06/11 00:04:19;;;;;;;1.30;1.20;;;;;;;14.00;100.00;90451.34;5072048;28;20502;-63
2023/06/11 00:06:45;;;;;;;0.93;0.93;;;;;;;14.05;100.00;90445.78;5072302;28;20028;-64
2023/06/11 00:09:11;;;;;;;0.90;0.90;;;;;;;14.07;100.00;90448.91;5072284;28;20056;-64
2023/06/11 00:11:41;;;;;;;1.52;1.42;;;;;;;14.01;100.00;90450.25;5072158;28;20150;-64
2023/06/11 00:14:08;;;;;;;1.60;1.50;;;;;;;13.95;100.00;90450.84;5072110;28;20118;-64
2023/06/11 00:16:36;;;;;;;0.95;0.95;;;;;;;13.95;100.00;90446.25;5072470;28;20514;-64
2023/06/11 00:19:02;;;;;;;1.10;1.10;;;;;;;13.99;100.00;90452.47;5072117;28;20025;-64
2023/06/11 00:21:29;;;;;;;0.90;0.90;;;;;;;13.98;100.00;90450.94;5072052;28;20047;-64
2023/06/11 00:23:55;;;;;;;0.85;0.85;;;;;;;14.02;100.00;90445.66;5072042;28;20031;-63
2023/06/11 00:26:22;;;;;;;1.15;1.15;;;;;;;14.02;100.00;90445.66;5071995;28;20024;-63
2023/06/11 00:28:48;;;;;;;0.85;0.85;;;;;;;14.05;100.00;90445.78;5071939;28;20028;-64
2023/06/11 00:31:13;;;;;;;1.25;1.17;;;;;;;14.02;100.00;90451.78;5071792;28;20169;-64
2023/06/11 00:33:39;;;;;;;1.52;1.48;;;;;;;14.02;100.00;90451.00;5071779;28;20555;-64
2023/06/11 00:36:04;;;;;;;1.10;1.02;;;;;;;14.00;100.00;90448.69;5071819;28;20072;-64
2023/06/11 00:38:30;;;;;;;1.35;1.33;;;;;;;13.99;100.00;90452.47;5071822;28;20107;-64
2023/06/11 00:40:56;;;;;;;1.73;1.50;;;;;;;13.98;100.00;90452.81;5071674;28;20040;-64
2023/06/11 00:43:23;;;;;;;0.90;0.90;;;;;;;13.99;100.00;90447.13;5071744;28;20103;-64
2023/06/11 00:45:53;;;;;;;0.80;0.80;;;;;;;13.88;100.00;90442.59;5071576;28;20029;-64
2023/06/11 00:48:21;;;;;;;0.82;0.82;;;;;;;13.88;100.00;90451.41;5071422;28;20021;-64
2023/06/11 00:50:49;;;;;;;1.75;1.30;;;;;;;13.77;100.00;90450.34;5071475;28;20056;-64
2023/06/11 00:53:17;;;;;;;1.20;1.20;;;;;;;13.68;100.00;90449.69;5071427;28;20040;-64
2023/06/11 00:55:43;;;;;;;1.58;1.42;;;;;;;13.71;100.00;90457.03;5071736;28;20039;-65
2023/06/11 00:58:13;;;;;;;1.00;1.00;;;;;;;13.60;100.00;90454.06;5071621;28;20024;-65
2023/06/11 01:00:57;;;;;;;1.20;1.20;;;;;;;13.60;100.00;90455.97;5071271;28;20112;-65
2023/06/11 01:03:26;;;;;;;1.25;1.15;;;;;;;13.59;100.00;90457.84;5071340;28;20030;-65
2023/06/11 01:06:11;;;;;;;1.10;1.08;;;;;;;13.48;100.00;90454.09;5071324;28;20078;-64
2023/06/11 01:08:38;;;;;;;0.80;0.80;;;;;;;13.46;100.00;90462.44;5071442;28;20033;-64
2023/06/11 01:11:08;;;;;;;1.40;1.25;;;;;;;13.40;100.00;90452.31;5071161;28;20036;-65
2023/06/11 01:13:36;;;;;;;1.35;1.25;;;;;;;13.40;100.00;90457.63;5071100;28;20053;-65
2023/06/11 01:16:09;;;;;;;1.30;1.30;;;;;;;13.40;100.00;90452.31;5070750;28;20070;-64
2023/06/11 01:18:46;;;;;;;0.90;0.90;;;;;;;13.41;100.00;90451.19;5052913;28;20528;-64
2023/06/11 01:21:17;;;;;;;1.05;1.05;;;;;;;13.50;100.00;90451.84;5071054;28;20026;-64
2023/06/11 01:24:09;;;;;;;1.75;1.65;;;;;;;13.66;100.00;90449.25;5071059;28;20032;-64
2023/06/11 01:26:49;;;;;;;0.98;0.98;;;;;;;13.74;100.00;90456.38;5070974;28;20028;-64
2023/06/11 01:29:15;;;;;;;1.13;1.08;;;;;;;13.77;100.00;90455.69;5070934;28;20501;-64
2023/06/11 01:31:41;;;;;;;1.50;1.45;;;;;;;13.78;100.00;90454.56;5070874;28;20028;-65
2023/06/11 01:34:08;;;;;;;0.80;0.80;;;;;;;13.79;100.00;90456.13;5070936;28;20035;-64
2023/06/11 01:36:36;;;;;;;1.00;1.00;;;;;;;13.76;100.00;90460.25;5070890;28;20031;-64
2023/06/11 01:39:05;;;;;;;0.90;0.90;;;;;;;13.65;100.00;90459.16;5070933;28;20036;-64
2023/06/11 01:41:31;;;;;;;1.45;1.35;;;;;;;13.37;100.00;90459.09;5070834;28;20110;-64
2023/06/11 01:43:56;;;;;;;1.05;1.05;;;;;;;13.32;100.00;90455.88;5070851;28;20033;-64
2023/06/11 01:46:22;;;;;;;1.65;1.55;;;;;;;13.35;100.00;90464.00;5070823;28;20020;-64
2023/06/11 01:48:47;;;;;;;1.75;1.65;;;;;;;13.33;100.00;90462.78;5052617;28;20131;-64
2023/06/11 01:51:14;;;;;;;1.38;1.38;;;;;;;13.18;100.00;90462.34;5070684;28;20032;-64
2023/06/11 01:53:40;;;;;;;1.85;1.75;;;;;;;13.17;100.00;90460.00;5070985;28;20074;-64
2023/06/11 01:56:06;;;;;;;1.67;1.58;;;;;;;13.03;100.00;90465.66;5070683;28;20084;-64
2023/06/11 01:58:32;;;;;;;1.33;1.30;;;;;;;12.96;100.00;90475.34;5070730;28;20103;-64
2023/06/11 02:00:58;;;;;;;1.00;1.00;;;;;;;13.04;100.00;90461.09;5070768;28;20025;-64
2023/06/11 02:03:23;;;;;;;1.70;1.60;;;;;;;13.07;100.00;90463.88;5070630;28;20552;-64
2023/06/11 02:05:49;;;;;;;1.15;1.15;;;;;;;13.06;100.00;90458.88;5070630;28;20028;-64
2023/06/11 02:08:14;;;;;;;1.55;1.45;;;;;;;13.14;100.00;90463.34;5070567;28;20052;-64
2023/06/11 02:10:40;;;;;;;1.52;1.42;;;;;;;13.19;100.00;90463.13;5070508;28;20044;-64
2023/06/11 02:13:05;;;;;;;1.30;1.23;;;;;;;13.28;100.00;90460.34;5070252;28;20419;-65
2023/06/11 02:15:30;;;;;;;0.85;0.85;;;;;;;13.34;100.00;90462.44;5070526;28;20028;-64
2023/06/11 02:17:56;;;;;;;1.00;1.00;;;;;;;13.38;100.00;90465.22;5070513;28;20032;-64
2023/06/11 02:20:21;;;;;;;1.10;1.08;;;;;;;13.37;100.00;90464.44;5052335;28;20391;-64
2023/06/11 02:22:47;;;;;;;2.00;1.58;;;;;;;13.37;100.00;90459.09;5070485;28;20028;-64
2023/06/11 02:25:12;;;;;;;2.10;2.00;;;;;;;13.36;100.00;90457.53;5070380;28;20486;-64
2023/06/11 02:27:37;;;;;;;1.50;1.50;;;;;;;13.31;100.00;90460.44;5070823;28;20024;-64
2023/06/11 02:30:04;;;;;;;1.23;1.17;;;;;;;13.26;100.00;90468.69;5074083;28;20056;-64
2023/06/11 02:32:30;;;;;;;2.25;1.95;;;;;;;13.21;100.00;90471.59;5074151;28;20052;-64
2023/06/11 02:34:55;;;;;;;1.23;1.23;;;;;;;13.20;100.00;90462.00;5074033;28;20456;-65
2023/06/11 02:37:21;;;;;;;1.75;1.42;;;;;;;13.26;100.00;90467.94;5074031;28;20115;-64
2023/06/11 02:39:46;;;;;;;0.98;0.98;;;;;;;13.23;100.00;90469.34;5074005;28;20103;-64
2023/06/11 02:42:11;;;;;;;0.80;0.80;;;;;;;13.21;100.00;90466.25;5073925;28;20029;-64
2023/06/11 02:44:37;;;;;;;1.20;1.20;;;;;;;13.20;100.00;90464.69;5073961;28;20024;-64
2023/06/11 02:47:02;;;;;;;1.85;1.75;;;;;;;13.18;100.00;90469.59;5073935;28;20032;-64
2023/06/11 02:49:28;;;;;;;0.90;0.90;;;;;;;13.07;100.00;90471.09;5073745;28;20052;-64
2023/06/11 02:51:53;;;;;;;3.83;2.03;;;;;;;13.01;100.00;90475.91;5073719;28;20029;-64
2023/06/11 02:54:18;;;;;;;1.42;1.38;;;;;;;12.92;100.00;90477.13;5073800;28;20028;-64
2023/06/11 02:56:44;;;;;;;1.08;1.08;;;;;;;12.86;100.00;90482.69;5073766;28;20462;-64
2023/06/11 02:59:09;;;;;;;1.00;1.00;;;;;;;12.88;100.00;90483.13;5073704;28;20035;-64
2023/06/11 03:01:35;;;;;;;2.13;2.00;;;;;;;12.82;100.00;90489.81;5073425;28;20094;-64
2023/06/11 03:04:00;;;;;;;24.30;16.48;;;;;;;13.06;100.00;90485.56;5073596;28;20101;-64
2023/06/11 03:06:26;;;;;;;5.70;4.63;;;;;;;13.04;100.00;90487.81;5073540;28;20456;-64
2023/06/11 03:08:53;;;;;;;1.70;1.60;;;;;;;13.03;100.00;90476.34;5073725;28;20108;-64
2023/06/11 03:11:18;;;;;;;1.15;1.15;;;;;;;13.09;100.00;90475.00;5073417;28;20062;-64
2023/06/11 03:13:44;;;;;;;2.60;1.20;;;;;;;13.14;100.00;90482.81;5073254;28;20049;-64
2023/06/11 03:16:10;;;;;;;0.90;0.90;;;;;;;13.15;100.00;90472.91;5073390;28;20086;-64
2023/06/11 03:18:36;;;;;;;2.20;2.03;;;;;;;13.17;100.00;90478.69;5073537;28;20455;-64
2023/06/11 03:21:01;;;;;;;0.90;0.90;;;;;;;13.11;100.00;90477.34;5073181;28;20115;-64
2023/06/11 03:23:26;;;;;;;2.35;1.80;;;;;;;13.06;100.00;90482.91;5073226;28;20028;-64
2023/06/11 03:25:52;;;;;;;1.50;1.45;;;;;;;13.10;100.00;90478.47;5073137;28;20408;-64
2023/06/11 03:28:17;;;;;;;0.80;0.80;;;;;;;13.17;100.00;90476.78;5073096;28;20141;-65
2023/06/11 03:30:43;;;;;;;1.08;1.08;;;;;;;13.19;100.00;90484.50;5072957;28;20035;-64
2023/06/11 03:33:08;;;;;;;2.05;1.52;;;;;;;13.34;100.00;90478.47;5073114;28;20107;-64
2023/06/11 03:35:33;;;;;;;0.80;0.80;;;;;;;13.36;100.00;90480.81;5073002;28;20028;-64
2023/06/11 03:37:59;;;;;;;1.27;1.27;;;;;;;13.49;100.00;90488.47;5072978;28;20064;-64
2023/06/11 03:40:24;;;;;;;1.30;1.30;;;;;;;13.63;100.00;90482.00;5072366;28;20036;-64
2023/06/11 03:42:50;;;;;;;1.20;1.10;;;;;;;13.67;100.00;90488.22;5072879;28;20075;-64
2023/06/11 03:45:15;;;;;;;2.05;1.63;;;;;;;13.69;100.00;90480.66;5072807;28;20028;-64
2023/06/11 03:47:41;;;;;;;1.00;1.00;;;;;;;13.77;100.00;90485.09;5073031;28;20461;-64
2023/06/11 03:50:07;;;;;;;0.90;0.90;;;;;;;13.72;100.00;90479.97;5072490;28;20498;-64
2023/06/11 03:52:32;;;;;;;1.95;1.85;;;;;;;13.67;100.00;90486.31;5072692;28;20117;-64
2023/06/11 03:54:58;;;;;;;1.35;1.25;;;;;;;13.76;100.00;90489.66;5240235;22;20052;-63
2023/06/11 03:57:23;;;;;;;1.67;1.52;;;;;;;13.84;100.00;90487.97;5092890;28;20056;-63
2023/06/11 03:59:48;;;;;;;1.33;1.23;;;;;;;14.00;100.00;90483.44;5092808;28;20503;-64
2023/06/11 04:02:14;;;;;;;1.90;1.52;;;;;;;14.07;100.00;90489.00;5092747;28;20084;-63
2023/06/11 04:04:39;;;;;;;1.02;1.02;;;;;;;14.08;100.00;90482.53;5092876;28;20115;-63
2023/06/11 04:07:05;;;;;;;1.25;1.25;;;;;;;14.10;100.00;90490.22;5092919;28;20024;-64
2023/06/11 04:09:31;;;;;;;1.20;1.20;;;;;;;14.11;100.00;90483.75;5092474;28;20493;-63
2023/06/11 04:11:57;;;;;;;1.33;1.27;;;;;;;14.02;100.00;90483.88;5092464;28;20028;-63
2023/06/11 04:14:23;;;;;;;1.42;1.42;;;;;;;14.07;100.00;90475.63;5092308;28;20115;-63
2023/06/11 04:16:49;;;;;;;0.80;0.80;;;;;;;14.13;100.00;90483.41;5092391;28;20081;-63
2023/06/11 04:19:14;;;;;;;1.85;1.75;;;;;;;13.97;100.00;90481.47;5092475;28;20024;-64
2023/06/11 04:21:40;;;;;;;1.65;1.55;;;;;;;13.95;100.00;90485.59;5092526;28;20055;-64
2023/06/11 04:24:06;;;;;;;2.35;2.15;;;;;;;13.85;100.00;90483.38;5074384;28;20781;-63
2023/06/11 04:26:32;;;;;;;0.90;0.90;;;;;;;14.07;100.00;90482.88;5092334;28;20156;-64
2023/06/11 04:28:58;;;;;;;1.08;1.08;;;;;;;14.14;100.00;90475.03;5092066;28;20119;-64
2023/06/11 04:31:26;;;;;;;1.40;1.33;;;;;;;14.35;100.00;90486.31;5092414;28;20100;-64
2023/06/11 04:34:02;;;;;;;1.55;1.45;;;;;;;14.52;100.00;90487.19;5092278;28;20028;-64
2023/06/11 04:36:29;;;;;;;1.00;1.00;;;;;;;14.59;100.00;90482.78;5092059;28;20024;-64
2023/06/11 04:38:55;;;;;;;1.20;1.20;;;;;;;14.75;100.00;90487.38;5092014;28;20047;-64
2023/06/11 04:41:23;;;;;;;1.10;1.10;;;;;;;14.91;100.00;90485.50;5091802;28;20126;-64
2023/06/11 04:43:49;;;;;;;1.33;1.30;;;;;;;15.05;100.00;90479.72;5092091;28;20081;-64
2023/06/11 04:46:14;;;;;;;1.73;1.63;;;;;;;14.94;100.00;90482.13;5091958;28;20025;-64
2023/06/11 04:48:40;;;;;;;2.67;1.88;;;;;;;15.21;100.00;90483.94;5092049;28;20118;-64
2023/06/11 04:51:06;;;;;;;1.25;1.15;;;;;;;15.25;100.00;90484.78;5091837;28;20467;-64
2023/06/11 04:53:31;;;;;;;1.05;1.05;;;;;;;15.21;100.00;90489.28;5091677;28;20059;-64
2023/06/11 04:55:59;;;;;;;1.35;1.27;;;;;;;15.42;100.00;90488.22;5091669;28;20482;-64
2023/06/11 04:58:25;;;;;;;1.10;1.10;;;;;;;15.51;100.00;90486.16;5091656;28;20039;-64
2023/06/11 05:00:52;;;;;;;1.38;1.30;;;;;;;15.74;100.00;90479.03;5091602;28;20035;-64
2023/06/11 05:03:19;;;;;;;0.90;0.90;;;;;;;15.91;100.00;90485.13;5091532;28;20024;-64
2023/06/11 05:05:51;;;;;;;1.23;1.23;;;;;;;15.73;100.00;90490.88;5091551;28;20032;-64
2023/06/11 05:08:25;;;;;;;1.20;1.20;;;;;;;15.90;100.00;90491.59;5091295;28;20036;-65
2023/06/11 05:11:00;;;;;;;3.13;2.03;;;;;;;16.19;100.00;90496.44;5089949;28;20032;-65
2023/06/11 05:13:26;;;;;;;0.80;0.80;;;;;;;16.64;100.00;90492.34;5091079;28;20024;-66
2023/06/11 05:15:56;;;;;;;1.10;1.10;;;;;;;17.01;100.00;90493.41;5090793;28;20092;-64
2023/06/11 05:18:25;;;;;;;1.65;1.55;;;;;;;17.11;100.00;90489.34;5088205;28;20516;-65
2023/06/11 05:20:52;;;;;;;1.00;1.00;;;;;;;17.40;100.00;90495.22;5088263;28;20052;-64
2023/06/11 05:23:18;;;;;;;1.80;1.70;;;;;;;17.91;100.00;90496.38;5090866;28;20027;-66
2023/06/11 05:25:47;;;;;;;1.10;1.10;;;;;;;18.14;100.00;90499.00;5091429;28;20032;-65
2023/06/11 05:28:15;;;;;;;1.10;1.10;;;;;;;18.40;100.00;90494.72;5091013;28;20350;-64
2023/06/11 05:30:45;;;;;;;1.30;1.30;;;;;;;18.56;100.00;90500.69;5090995;28;20060;-64
2023/06/11 05:33:13;;;;;;;1.52;1.42;;;;;;;19.09;100.00;90505.88;5090226;28;20032;-65
2023/06/11 05:35:40;;;;;;;1.42;1.38;;;;;;;19.34;100.00;90498.81;5090070;28;20365;-65
2023/06/11 05:38:06;;;;;;;5.03;4.10;;;;;;;19.71;100.00;90503.38;5089996;28;20028;-64
2023/06/11 05:40:32;;;;;;;2.67;2.05;;;;;;;20.03;100.00;90498.97;5090958;28;20093;-67
2023/06/11 05:42:58;;;;;;;6.72;6.00;;;;;;;20.19;100.00;90490.56;5090826;28;20016;-63
2023/06/11 05:45:25;;;;;;;1.38;1.38;;;;;;;20.65;100.00;90500.88;5091391;28;20467;-64
2023/06/11 05:47:51;;;;;;;5.68;4.68;;;;;;;21.13;100.00;90496.00;5091248;28;20036;-62
2023/06/11 05:50:16;;;;;;;5.10;3.60;;;;;;;21.46;100.00;90510.38;5090931;28;20085;-62
2023/06/11 05:52:42;;;;;;;8.48;4.35;;;;;;;21.65;100.00;90506.56;5073279;28;20036;-63
2023/06/11 05:55:07;;;;;;;22.95;14.50;;;;;;;21.57;100.00;90505.75;5070192;28;20132;-63
2023/06/11 05:57:33;;;;;;;12.65;11.32;;;;;;;21.66;100.00;90503.44;5083809;28;20111;-66
2023/06/11 05:59:58;;;;;;;3.88;3.35;;;;;;;21.70;100.00;90501.50;5089080;28;20070;-65
2023/06/11 06:02:23;;;;;;;1.70;1.60;;;;;;;21.83;100.00;90494.56;5089527;28;20036;-65
2023/06/11 06:04:49;;;;;;;5.30;3.00;;;;;;;22.10;100.00;90499.59;5093885;28;20475;-65
2023/06/11 06:07:16;;;;;;;1.48;1.38;;;;;;;22.07;100.00;90505.78;5094286;28;20099;-65
2023/06/11 06:09:41;;;;;;;3.15;1.67;;;;;;;22.01;100.00;90504.59;5093862;28;20028;-65
2023/06/11 06:12:07;;;;;;;1.58;1.48;;;;;;;22.40;100.00;90491.00;5094166;28;20020;-65
2023/06/11 06:14:33;;;;;;;1.17;1.00;;;;;;;21.55;100.00;90502.66;5094330;28;20067;-65
2023/06/11 06:16:58;;;;;;;6.07;2.55;;;;;;;21.74;100.00;90507.69;5094295;28;20056;-67
2023/06/11 06:19:24;;;;;;;1.40;1.30;;;;;;;21.47;100.00;90501.91;5094565;28;20477;-65
2023/06/11 06:21:49;;;;;;;22.42;1.45;;;;;;;21.94;100.00;90502.69;5094435;28;20461;-67
2023/06/11 06:24:15;;;;;;;1.73;1.63;;;;;;;21.70;100.00;90500.75;5094297;28;20390;-66
2023/06/11 06:26:43;;;;;;;1.20;1.20;;;;;;;21.86;100.00;90509.25;5094328;28;20024;-66
2023/06/11 06:29:14;;;;;;;1.13;1.13;;;;;;;22.33;100.00;90497.22;5094336;28;20107;-65
2023/06/11 06:31:40;;;;;;;2.38;1.63;;;;;;;22.23;100.00;90505.38;5093911;28;20024;-67
2023/06/11 06:34:07;;;;;;;1.48;1.45;;;;;;;22.48;100.00;90497.97;5093957;28;20089;-65
2023/06/11 06:36:32;;;;;;;2.28;2.17;;;;;;;22.06;100.00;90509.66;5094085;28;20031;-65
2023/06/11 06:38:58;;;;;;;2.13;2.03;;;;;;;22.71;100.00;90502.91;5094211;28;20024;-66
2023/06/11 06:41:23;;;;;;;4.32;3.92;;;;;;;22.67;100.00;90502.94;5094127;28;20028;-65
2023/06/11 06:43:48;;;;;;;30.73;2.45;;;;;;;23.08;100.00;90496.22;5093823;28;20156;-64
2023/06/11 06:46:14;;;;;;;1.55;1.45;;;;;;;21.93;100.00;90505.75;5093846;28;20028;-63
2023/06/11 06:48:39;;;;;;;15.30;11.90;;;;;;;21.90;100.00;90503.81;5093419;28;20060;-62
2023/06/11 06:51:05;;;;;;;3.78;2.08;;;;;;;21.53;100.00;90513.88;5093933;28;20028;-61
2023/06/11 06:53:30;;;;;;;6.53;1.83;;;;;;;20.98;100.00;90497.13;5093504;28;20035;-62
2023/06/11 06:55:58;;;;;;;1.48;1.38;;;;;;;20.66;100.00;90502.41;5093902;28;20118;-62
2023/06/11 06:58:24;;;;;;;1.33;1.23;;;;;;;21.00;100.00;90499.47;5093710;28;20028;-62
2023/06/11 07:00:49;;;;;;;1.60;1.50;;;;;;;21.13;100.00;90504.09;5093785;28;20553;-62
2023/06/11 07:03:15;;;;;;;3.28;1.67;;;;;;;20.58;100.00;90501.63;5093976;28;20468;-62
2023/06/11 07:05:41;;;;;;;1.40;1.30;;;;;;;20.79;100.00;90502.84;5094023;28;20544;-62
2023/06/11 07:08:08;;;;;;;2.22;1.95;;;;;;;21.07;100.00;90504.88;5093776;28;20474;-62
2023/06/11 07:10:34;;;;;;;2.28;1.92;;;;;;;21.36;100.00;90508.44;5093574;28;20032;-63
2023/06/11 07:13:00;;;;;;;4.55;2.30;;;;;;;21.80;100.00;90505.41;5093449;28;20035;-63
2023/06/11 07:15:25;;;;;;;4.10;1.65;;;;;;;21.55;100.00;90510.78;5092309;28;20035;-63
2023/06/11 07:17:51;;;;;;;4.18;2.22;;;;;;;21.41;100.00;90508.84;5093526;28;20031;-64
2023/06/11 07:20:16;;;;;;;1.75;1.55;;;;;;;21.98;100.00;90505.38;5093637;28;20141;-64
2023/06/11 07:22:42;;;;;;;2.63;2.38;;;;;;;22.96;100.00;90494.72;5093785;28;20032;-64
2023/06/11 07:25:07;;;;;;;2.67;2.00;;;;;;;22.96;100.00;90495.50;5093442;28;20446;-64
2023/06/11 07:27:33;;;;;;;7.32;6.63;;;;;;;24.19;100.00;90492.34;5093625;28;20031;-64
2023/06/11 07:29:58;;;;;;;4.25;1.35;;;;;;;24.22;100.00;90492.72;5093468;28;20031;-64
2023/06/11 07:32:24;;;;;;;1.92;1.83;;;;;;;23.08;100.00;90502.41;5093483;28;20085;-64
2023/06/11 07:34:49;;;;;;;1.65;1.55;;;;;;;21.79;100.00;90504.63;5093335;28;20028;-63
2023/06/11 07:37:14;;;;;;;2.10;1.50;;;;;;;21.73;100.00;90503.44;5093419;28;20118;-63
2023/06/11 07:39:40;;;;;;;1.77;1.60;;;;;;;21.58;100.00;90501.88;5093581;28;20032;-63
2023/06/11 07:42:06;;;;;;;1.25;1.25;;;;;;;22.08;100.00;90499.19;5093289;28;20550;-64
2023/06/11 07:44:32;;;;;;;1.88;1.45;;;;;;;21.88;100.00;90501.50;5093310;28;20035;-64
2023/06/11 07:46:57;;;;;;;1.95;1.77;;;;;;;22.39;100.00;90489.47;5093397;28;20496;-63
2023/06/11 07:49:23;;;;;;;1.45;1.35;;;;;;;23.42;100.00;90494.47;5093199;28;20504;-64
2023/06/11 07:51:48;;;;;;;2.88;2.47;;;;;;;23.99;100.00;90487.88;5093228;28;20412;-64
2023/06/11 07:54:13;;;;;;;1.60;1.50;;;;;;;23.82;100.00;90484.13;5093011;28;20044;-64
2023/06/11 07:56:39;;;;;;;1.52;1.40;;;;;;;24.65;100.00;90484.94;5093149;28;20126;-64
2023/06/11 07:59:05;;;;;;;1.50;1.40;;;;;;;27.30;95.88;90486.66;5092962;28;20089;-64
2023/06/11 08:01:30;;;;;;;1.83;1.35;;;;;;;26.28;85.70;90481.91;5093246;28;20047;-64
2023/06/11 08:03:56;;;;;;;2.75;1.92;;;;;;;26.10;89.75;90478.72;5092882;28;20024;-63
2023/06/11 08:06:22;;;;;;;1.75;1.35;;;;;;;25.76;86.48;90496.00;5092964;28;20026;-64
2023/06/11 08:08:47;;;;;;;2.42;1.88;;;;;;;27.17;77.24;90485.00;5092553;28;20028;-64
2023/06/11 08:11:14;;;;;;;3.33;1.67;;;;;;;25.88;86.49;90492.69;5092783;28;20051;-64
2023/06/11 08:13:40;;;;;;;2.10;1.83;;;;;;;26.15;92.91;90486.41;5092635;28;20097;-64
2023/06/11 08:16:06;;;;;;;2.10;1.73;;;;;;;26.10;87.66;90493.13;5092964;28;20067;-64
2023/06/11 08:18:32;;;;;;;1.13;1.10;;;;;;;28.15;75.73;90486.72;5092884;28;20109;-64
2023/06/11 08:20:58;;;;;;;2.00;1.77;;;;;;;28.46;67.87;90486.41;5092487;28;20454;-64
2023/06/11 08:23:24;;;;;;;2.65;2.08;;;;;;;26.84;77.01;90480.16;5092329;28;20028;-64
2023/06/11 08:25:49;;;;;;;1.20;1.15;;;;;;;26.48;77.24;90484.69;5092147;28;20028;-64
2023/06/11 08:28:15;;;;;;;1.55;1.42;;;;;;;25.74;83.73;90487.47;5092365;28;20089;-64
2023/06/11 08:30:41;;;;;;;2.28;2.15;;;;;;;25.16;97.33;90481.22;5092181;28;20069;-64
2023/06/11 08:33:06;;;;;;;1.42;1.38;;;;;;;25.63;98.01;90481.38;5091983;28;20024;-64
2023/06/11 08:35:32;;;;;;;5.78;2.40;;;;;;;26.07;87.60;90477.59;5092123;28;20024;-64
2023/06/11 08:37:57;;;;;;;1.58;1.48;;;;;;;24.19;100.00;90481.47;5092179;28;20433;-64
2023/06/11 08:40:23;;;;;;;4.60;2.28;;;;;;;24.06;100.00;90471.50;5092181;28;20110;-64
2023/06/11 08:42:49;;;;;;;2.33;2.13;;;;;;;23.48;100.00;90476.56;5092051;28;20028;-64
2023/06/11 08:45:14;;;;;;;2.72;1.88;;;;;;;23.18;100.00;90479.09;5092261;28;20131;-64
2023/06/11 08:47:49;;;;;;;2.13;2.03;;;;;;;23.66;100.00;90478.41;5092064;28;20561;-64
2023/06/11 08:50:15;;;;;;;1.60;1.50;;;;;;;24.33;100.00;90475.16;5092059;28;20056;-64
2023/06/11 08:52:42;;;;;;;1.55;1.35;;;;;;;25.51;88.51;90481.91;5091790;28;20478;-63
2023/06/11 08:55:08;;;;;;;1.50;1.30;;;;;;;25.96;64.39;90477.00;5091520;28;20111;-64
2023/06/11 08:57:34;;;;;;;1.88;1.73;;;;;;;27.13;56.31;90480.34;5091717;28;20474;-64
2023/06/11 08:59:59;;;;;;;1.30;1.20;;;;;;;27.21;55.99;90478.25;5091742;28;20022;-64
2023/06/11 09:02:25;;;;;;;2.03;1.90;;;;;;;30.21;52.76;90482.28;5091619;28;20028;-65
2023/06/11 09:04:51;;;;;;;2.35;1.63;;;;;;;32.11;44.56;90478.72;5091422;28;20028;-64
2023/06/11 09:07:23;;;;;;;1.13;1.10;;;;;;;34.34;40.16;90479.81;5091699;28;20035;-65
2023/06/11 09:10:01;;;;;;;;;;;;;;;36.96;34.46;90481.16;5092113;28;20072;-66
2023/06/11 09:12:27;;;;;;;1.45;1.25;;;;;;;38.37;33.15;90478.69;5091437;28;19939;-64
2023/06/11 09:14:52;;;;;;;1.08;1.08;;;;;;;35.17;34.40;90488.41;5091425;28;20466;-64
2023/06/11 09:17:18;;;;;;;3.45;1.02;;;;;;;33.87;36.15;90476.44;5091662;28;20024;-64
2023/06/11 09:19:43;;;;;;;1.65;1.55;;;;;;;31.50;38.78;90469.22;5091386;28;20027;-64
2023/06/11 09:22:08;;;;;;;3.97;1.33;;;;;;;31.29;39.21;90478.25;5091416;28;20028;-64
2023/06/11 09:24:34;;;;;;;1.13;1.13;;;;;;;32.51;38.16;90468.91;5091491;28;20085;-65
2023/06/11 09:27:00;;;;;;;4.82;1.63;;;;;;;34.09;36.53;90475.47;5091256;28;20524;-65
2023/06/11 09:29:27;;;;;;;2.22;1.75;;;;;;;35.66;34.25;90479.56;5091121;28;20115;-65
2023/06/11 09:32:06;;;;;;;9.02;1.63;;;;;;;35.14;33.95;90479.06;5091107;28;20504;-66
2023/06/11 09:34:32;;;;;;;7.50;5.32;;;;;;;35.96;33.73;90475.56;5090131;28;20074;-65
2023/06/11 09:36:57;;;;;;;1.92;1.83;;;;;;;35.06;30.77;90470.38;5090657;28;20406;-66
2023/06/11 09:39:23;;;;;;;1.60;1.38;;;;;;;33.71;30.87;90474.00;5090597;28;20039;-67
2023/06/11 09:41:50;;;;;;;3.22;0.90;;;;;;;33.05;33.69;90469.00;5091059;28;20024;-66
2023/06/11 09:44:19;;;;;;;1.17;1.08;;;;;;;32.39;32.04;90479.59;5090988;28;20028;-65
2023/06/11 09:46:48;;;;;;;1.40;1.17;;;;;;;31.54;34.11;90466.31;5090827;28;20074;-65
2023/06/11 09:49:15;;;;;;;1.80;1.25;;;;;;;32.15;33.77;90471.06;5090177;28;20113;-65
2023/06/11 09:51:41;;;;;;;1.70;1.60;;;;;;;30.34;36.88;90486.53;5090647;28;20020;-65
2023/06/11 09:54:07;;;;;;;1.88;1.60;;;;;;;29.45;37.97;90486.44;5090283;28;20052;-66
2023/06/11 09:56:35;;;;;;;0.85;0.85;;;;;;;30.28;37.25;90482.03;5091036;28;20050;-66
2023/06/11 09:59:02;;;;;;;1.13;1.10;;;;;;;31.21;36.32;90472.22;5090884;28;20028;-66
2023/06/11 10:01:29;;;;;;;2.33;2.13;;;;;;;30.76;36.75;90469.09;5090916;28;20101;-65
2023/06/11 10:03:56;;;;;;;1.63;1.20;;;;;;;31.68;37.26;90465.03;5090276;28;20025;-66
2023/06/11 10:06:26;;;;;;;1.27;1.25;;;;;;;30.31;38.42;90467.44;5089233;28;20034;-66
2023/06/11 10:08:55;;;;;;;1.30;1.20;;;;;;;31.08;37.08;90476.97;5088364;28;20101;-65
2023/06/11 10:11:22;;;;;;;1.30;1.20;;;;;;;30.89;37.69;90461.59;5088778;28;20119;-65
2023/06/11 10:13:59;;;;;;;1.38;1.25;;;;;;;30.87;38.22;90473.00;5090039;28;20024;-65
2023/06/11 10:16:26;;;;;;;1.05;1.05;;;;;;;30.05;38.20;90467.47;5087950;28;20017;-65
2023/06/11 10:18:52;;;;;;;1.52;1.42;;;;;;;29.78;37.93;90458.88;5089920;28;20040;-65
2023/06/11 10:21:18;;;;;;;2.72;2.28;;;;;;;29.75;38.18;90457.03;5089843;28;20039;-65
2023/06/11 10:23:50;;;;;;;1.60;1.35;;;;;;;29.64;38.56;90451.09;5089918;28;20405;-65
2023/06/11 10:26:16;;;;;;;0.90;0.90;;;;;;;29.74;40.62;90450.00;5089470;28;20089;-65
2023/06/11 10:28:51;;;;;;;1.35;1.25;;;;;;;30.42;40.24;90445.88;5089479;28;20024;-65
2023/06/11 10:31:35;;;;;;;4.53;1.27;;;;;;;30.72;39.14;90441.00;5089718;28;20382;-66
2023/06/11 10:34:04;;;;;;;1.63;1.52;;;;;;;30.84;38.85;90445.69;5087655;28;20027;-67
2023/06/11 10:36:37;;;;;;;2.65;1.92;;;;;;;31.23;37.65;90436.81;5090150;28;20024;-65
2023/06/11 10:39:33;;;;;;;0.77;0.77;;;;;;;30.48;36.03;90449.63;5070182;28;20539;-64
2023/06/11 10:42:00;;;;;;;1.55;1.45;;;;;;;30.97;35.70;90447.16;5052622;28;20561;-63
2023/06/11 10:44:26;;;;;;;1.58;1.45;;;;;;;32.60;36.74;90435.88;5070461;28;20032;-63
2023/06/11 10:46:53;;;;;;;1.45;1.35;;;;;;;32.88;33.57;90442.22;5078504;28;20463;-63
2023/06/11 10:49:23;;;;;;;1.33;1.23;;;;;;;31.74;34.77;90447.53;5090898;28;20032;-64
2023/06/11 10:51:50;;;;;;;1.25;1.15;;;;;;;30.62;36.74;90448.41;5093932;28;20134;-63
2023/06/11 10:54:34;;;;;;;1.20;1.10;;;;;;;31.54;37.25;90436.84;5093660;28;20040;-63
2023/06/11 10:57:03;;;;;;;1.25;1.08;;;;;;;33.21;34.70;90439.59;5093760;28;20035;-64
2023/06/11 10:59:30;;;;;;;0.88;0.88;;;;;;;33.76;37.07;90437.50;5090487;28;20032;-64
2023/06/11 11:01:56;;;;;;;1.30;1.20;;;;;;;34.68;33.84;90435.13;5083143;28;20020;-62
2023/06/11 11:04:22;;;;;;;2.45;1.90;;;;;;;33.05;35.21;90421.38;5083349;28;20095;-63
2023/06/11 11:06:55;;;;;;;2.60;1.58;;;;;;;30.52;35.74;90422.03;5077542;28;20442;-62
2023/06/11 11:09:22;;;;;;;1.73;1.63;;;;;;;31.39;36.47;90418.59;5074036;28;20379;-62
2023/06/11 11:11:48;;;;;;;1.60;1.20;;;;;;;32.98;34.41;90419.72;5070420;28;20028;-62
2023/06/11 11:14:16;;;;;;;2.90;1.65;;;;;;;33.57;35.51;90411.97;5059599;28;20498;-60
2023/06/11 11:16:42;;;;;;;1.50;1.40;;;;;;;35.24;33.57;90414.16;5064811;28;20028;-61
2023/06/11 11:19:08;;;;;;;2.78;2.38;;;;;;;35.74;31.05;90405.22;5078578;28;20150;-63
2023/06/11 11:21:33;;;;;;;0.90;0.90;;;;;;;32.74;33.93;90410.50;5075283;28;20061;-65
2023/06/11 11:23:59;;;;;;;2.63;1.45;;;;;;;32.59;34.05;90407.56;5089763;28;20035;-62
2023/06/11 11:26:26;;;;;;;1.67;1.58;;;;;;;33.39;33.39;90406.50;5090577;28;20073;-63